Tropical Cyclones
[Index]
Main Index Home Page Stock Weather Photos Extreme Storms Discussion Storm News and Storm Chasing Reports Tropical Cyclones / Hurricanes / Typhoons Weather Data and Links Wild Fires / Bushfires Weather Observation Techniques Weather Picture Catalogue Tornado Pictures and Reports Stock Video Footage and DVDs for sale
Season 1991-1992 Tropical Cyclone FRAN Track Map
Season 1991-1992 Summaries: [BoM-AU] [JTWC-AU] [JTWC-SIO] [JTWC-SPAC] [JTWC-SH]
<<- Previous TC | BoM 1991-1992 Season | Next TC ->>

click for intensity scale information  Lat/long Grid: Show Hide

 Date Labels: Show Hide

Bureau of Meteorology Tropical Cyclone Data

Name: FRAN
Number: 750 / 199192_08

09 Mar 1992 06:00 UTC to 17 Mar 1992 12:00 UTC

    date/time    lat    long    hPa   cat  kts
1992-03-09 06   18.6   168.4    940    4    99          
1992-03-09 12   18.9   167.4    940    4    89          
1992-03-09 18   19.3   166.1    950    4    89          
1992-03-10 00   19.7   165.0    950    4    86          
1992-03-10 06   19.8   164.0    950    4    86          
1992-03-10 12   19.9   162.6    955    4    80          
1992-03-10 18   19.8   161.4    965    3    76          
1992-03-11 00   19.8   160.3    965    3    76          
1992-03-11 06   19.9   159.6    960    3    76          
1992-03-11 12   19.9   158.5    960    3    76          
1992-03-11 18   20.0   157.5    950    4    80          
1992-03-12 00   20.1   157.0    950    4    80          
1992-03-12 06   20.0   156.5    950    4    80          
1992-03-12 12   20.0   155.9    950    4    80          
1992-03-12 18   20.1   155.6    950    4    80          
1992-03-13 00   20.2   155.3    950    4    80          
1992-03-13 06   20.5   155.3    950    4    80          
1992-03-13 12   20.7   155.3    950    4    80          
1992-03-13 18   20.8   155.1    960    3    76          
1992-03-14 00   21.0   154.8    970    3    70          
1992-03-14 06   21.2   154.5    975    2    60          
1992-03-14 12   21.3   154.1    975    2    60          
1992-03-14 18   21.4   153.6    975    2    60          
1992-03-15 00   21.8   152.4    980    2    54          
1992-03-15 06   22.8   152.0    985    2    51          
1992-03-15 12   23.2   152.0    980    2    51          
1992-03-15 18   24.4   152.0    985    2    51          
1992-03-16 00   24.8   151.9    990    1    41          
1992-03-16 06   25.0   152.3    992    1    41          
1992-03-16 12   25.1   153.0    992    1    41          
1992-03-16 18   25.2   154.1    985    2    41          
1992-03-17 00   25.2   155.2    980    2    41          
1992-03-17 06   25.4   157.2    980    2    41          
1992-03-17 12   25.5   159.0    980    2    41          
Winds are 10-min average.

Tropical cyclone tracks developed by Michael Bath using data from the Bureau of Meteorology and Google Maps.


[Australian Severe Weather index] [Copyright Notice] [Email Contacts] [Search This Site] [Privacy Policy]
Document: tropical_cyclone_fran.htm Updated: 30 May 2013